Time;durP1;ratioP1;P1;durP2;ratioP2;P2;SDS_P1;SDS_P2;PMS_P1;PMS_P2;Temp;Humidity;BMP_temperature;BMP_pressure;BME280_temperature;BME280_humidity;BME280_pressure;Samples;Min_cycle;Max_cycle;Signal;HPM_P1;HPM_P2
2022/05/29 00:01:43;;;;;;;13.05;3.20;;;10.70;99.90;;;;;;5072257;28;20092;-79
2022/05/29 00:04:12;;;;;;;18.85;4.60;;;10.70;99.90;;;;;;5071949;28;20044;-79
2022/05/29 00:06:41;;;;;;;12.65;3.08;;;10.70;99.90;;;;;;5071119;28;20071;-79
2022/05/29 00:09:09;;;;;;;11.35;3.47;;;10.60;99.90;;;;;;5072336;28;20029;-79
2022/05/29 00:11:35;;;;;;;14.05;3.22;;;10.60;99.90;;;;;;5072031;28;20035;-79
2022/05/29 00:14:00;;;;;;;13.82;3.30;;;10.50;99.90;;;;;;5072859;28;20024;-82
2022/05/29 00:16:29;;;;;;;10.10;3.13;;;10.50;99.90;;;;;;5076649;28;20592;-82
2022/05/29 00:18:56;;;;;;;10.32;3.50;;;10.40;99.90;;;;;;5072609;28;20508;-83
2022/05/29 00:21:23;;;;;;;6.78;3.30;;;10.40;99.90;;;;;;5073409;28;20481;-82
2022/05/29 00:23:49;;;;;;;10.45;3.58;;;10.30;99.90;;;;;;5074072;28;20107;-82
2022/05/29 00:26:18;;;;;;;14.43;3.63;;;10.30;99.90;;;;;;5074221;28;20024;-81
2022/05/29 00:28:45;;;;;;;15.80;3.55;;;10.30;99.90;;;;;;5074946;28;20031;-81
2022/05/29 00:31:14;;;;;;;18.00;4.10;;;10.30;99.90;;;;;;5074462;28;20024;-82
2022/05/29 00:33:40;;;;;;;11.18;3.53;;;10.30;99.90;;;;;;5074352;28;20056;-81
2022/05/29 00:36:11;;;;;;;9.77;3.80;;;10.30;99.90;;;;;;5076216;28;20025;-81
2022/05/29 00:38:48;;;;;;;11.57;3.85;;;10.30;99.90;;;;;;5076090;28;20024;-82
2022/05/29 00:41:26;;;;;;;12.77;3.40;;;10.30;99.90;;;;;;5073922;28;20028;-82
2022/05/29 00:44:10;;;;;;;13.57;3.95;;;10.20;99.90;;;;;;5074230;28;20056;-81
2022/05/29 00:46:36;;;;;;;7.07;3.72;;;10.20;99.90;;;;;;5071519;28;20124;-81
2022/05/29 00:49:11;;;;;;;12.32;4.13;;;10.00;99.90;;;;;;5071990;28;20027;-82
2022/05/29 00:51:51;;;;;;;13.48;4.68;;;10.00;99.90;;;;;;5071851;28;20298;-82
2022/05/29 00:54:23;;;;;;;8.13;3.65;;;10.00;99.90;;;;;;5072061;28;20063;-82
2022/05/29 00:56:51;;;;;;;13.38;3.75;;;10.00;99.90;;;;;;5073762;28;20064;-82
2022/05/29 00:59:21;;;;;;;14.07;3.90;;;10.00;99.90;;;;;;5072569;28;20077;-82
2022/05/29 01:01:48;;;;;;;13.93;4.68;;;10.00;99.90;;;;;;5073444;28;20016;-82
2022/05/29 01:04:13;;;;;;;16.95;4.22;;;10.00;99.90;;;;;;5071676;28;20029;-82
2022/05/29 01:06:39;;;;;;;10.30;3.25;;;9.90;99.90;;;;;;5071680;28;20162;-83
2022/05/29 01:09:08;;;;;;;11.63;3.80;;;9.90;99.90;;;;;;5074087;28;20217;-82
2022/05/29 01:11:59;;;;;;;12.00;3.90;;;10.00;99.90;;;;;;5073239;28;20367;-83
2022/05/29 01:14:54;;;;;;;12.32;3.70;;;9.90;99.90;;;;;;5036467;28;20048;-81
2022/05/29 01:17:30;;;;;;;22.55;4.97;;;10.00;99.90;;;;;;5073971;28;20115;-82
2022/05/29 01:20:03;;;;;;;22.08;4.55;;;10.00;99.90;;;;;;5073278;28;20024;-82
2022/05/29 01:23:04;;;;;;;18.90;5.22;;;10.00;99.90;;;;;;5074983;28;20025;-81
2022/05/29 01:25:54;;;;;;;12.05;4.38;;;10.00;99.90;;;;;;5075384;28;20100;-82
2022/05/29 01:28:41;;;;;;;17.73;4.90;;;10.00;99.90;;;;;;5075056;28;20020;-81
2022/05/29 01:31:31;;;;;;;16.92;3.80;;;10.10;99.90;;;;;;5073232;28;20032;-82
2022/05/29 01:34:06;;;;;;;16.25;3.55;;;10.10;99.90;;;;;;5076082;28;20383;-81
2022/05/29 01:36:39;;;;;;;7.40;3.40;;;10.10;99.90;;;;;;5075133;28;20103;-82
2022/05/29 01:39:27;;;;;;;15.45;4.35;;;10.10;99.90;;;;;;5073880;28;20128;-81
2022/05/29 01:42:15;;;;;;;12.10;4.10;;;10.00;99.90;;;;;;5075527;28;20091;-81
2022/05/29 01:44:58;;;;;;;13.10;4.07;;;10.00;99.90;;;;;;5074142;28;20024;-82
2022/05/29 01:47:31;;;;;;;17.42;3.75;;;10.10;99.90;;;;;;5075512;28;20024;-82
2022/05/29 01:50:05;;;;;;;10.00;3.63;;;10.10;99.90;;;;;;5075131;28;20537;-82
2022/05/29 01:52:57;;;;;;;10.60;4.40;;;10.10;99.90;;;;;;5076735;28;20020;-83
2022/05/29 01:55:37;;;;;;;10.45;4.07;;;10.10;99.90;;;;;;5067399;28;20493;-83
2022/05/29 01:58:07;;;;;;;12.02;3.95;;;10.10;99.90;;;;;;5073564;28;20032;-82
2022/05/29 02:00:33;;;;;;;16.83;4.70;;;10.10;99.90;;;;;;5070399;28;20054;-82
2022/05/29 02:03:05;;;;;;;14.27;4.57;;;9.90;99.90;;;;;;5070042;28;20029;-82
2022/05/29 02:05:42;;;;;;;13.45;4.65;;;9.90;99.90;;;;;;5070324;28;20048;-82
2022/05/29 02:08:32;;;;;;;12.65;4.10;;;9.90;99.90;;;;;;5069868;28;20016;-82
2022/05/29 02:11:07;;;;;;;14.52;5.30;;;9.90;99.90;;;;;;5070696;28;20032;-81
2022/05/29 02:13:51;;;;;;;14.68;4.38;;;9.80;99.90;;;;;;5071167;28;20016;-81
2022/05/29 02:16:32;;;;;;;11.88;4.57;;;9.80;99.90;;;;;;5069162;28;20363;-81
2022/05/29 02:19:19;;;;;;;14.88;4.97;;;9.80;99.90;;;;;;5069921;28;20021;-81
2022/05/29 02:21:57;;;;;;;10.38;4.57;;;9.80;99.90;;;;;;5069914;28;20032;-81
2022/05/29 02:24:30;;;;;;;8.32;4.53;;;9.80;99.90;;;;;;5069693;28;20310;-81
2022/05/29 02:27:19;;;;;;;14.20;4.80;;;9.80;99.90;;;;;;5069011;28;20033;-81
2022/05/29 02:29:48;;;;;;;18.45;5.25;;;9.80;99.90;;;;;;5054511;28;20047;-81
2022/05/29 02:32:41;;;;;;;19.58;5.28;;;9.70;99.90;;;;;;5068344;28;20028;-81
2022/05/29 02:36:19;;;;;;;19.58;5.32;;;9.70;99.90;;;;;;5068741;28;20486;-81
2022/05/29 02:39:15;;;;;;;15.07;4.90;;;9.70;99.90;;;;;;4991305;28;20030;-82
2022/05/29 02:42:00;;;;;;;10.73;5.32;;;9.70;99.90;;;;;;5069183;28;20021;-81
2022/05/29 02:44:59;;;;;;;14.35;5.13;;;9.70;99.90;;;;;;5073820;28;20023;-81
2022/05/29 02:47:42;;;;;;;11.13;4.32;;;9.70;99.90;;;;;;5071177;28;20485;-79
2022/05/29 02:50:58;;;;;;;10.10;4.85;;;9.80;99.90;;;;;;5071806;28;20029;-79
2022/05/29 02:53:25;;;;;;;9.60;4.30;;;9.70;99.90;;;;;;5065112;28;20029;-80
2022/05/29 02:55:51;;;;;;;17.35;4.85;;;9.70;99.90;;;;;;5072225;28;20050;-79
2022/05/29 02:58:21;;;;;;;11.20;5.03;;;9.70;99.90;;;;;;5072124;28;20136;-80
2022/05/29 03:00:58;;;;;;;16.50;5.22;;;9.70;99.90;;;;;;5070289;28;20385;-80
2022/05/29 03:03:53;;;;;;;16.98;5.55;;;9.70;99.90;;;;;;5070599;28;20029;-79
2022/05/29 03:06:56;;;;;;;14.20;5.43;;;9.70;99.90;;;;;;5059694;28;20106;-79
2022/05/29 03:09:43;;;;;;;14.50;5.13;;;9.70;99.90;;;;;;5071349;28;20028;-80
2022/05/29 03:12:54;;;;;;;12.73;5.43;;;9.70;99.90;;;;;;5064104;28;20048;-80
2022/05/29 03:16:20;;;;;;;11.98;4.82;;;9.60;99.90;;;;;;5060087;28;20039;-80
2022/05/29 03:19:09;;;;;;;13.05;5.63;;;9.60;99.90;;;;;;5026000;28;20051;-80
2022/05/29 03:21:59;;;;;;;10.20;5.07;;;9.70;99.90;;;;;;5072414;28;20016;-79
2022/05/29 03:25:01;;;;;;;19.42;5.13;;;9.60;99.90;;;;;;5072462;28;20075;-80
2022/05/29 03:27:48;;;;;;;8.30;4.38;;;9.70;99.90;;;;;;5074566;28;20028;-81
2022/05/29 03:30:45;;;;;;;8.68;4.05;;;9.70;99.90;;;;;;5080114;28;20109;-81
2022/05/29 03:33:13;;;;;;;11.85;4.90;;;9.80;99.90;;;;;;5080383;28;20046;-80
2022/05/29 03:36:07;;;;;;;12.02;4.93;;;9.80;99.90;;;;;;5082472;28;20025;-80
2022/05/29 03:38:32;;;;;;;17.55;4.47;;;9.80;99.90;;;;;;5079126;28;20486;-81
2022/05/29 03:40:58;;;;;;;15.88;4.38;;;9.80;99.90;;;;;;5081472;28;20028;-80
2022/05/29 03:43:24;;;;;;;14.10;5.30;;;9.80;99.90;;;;;;5081774;28;20025;-81
2022/05/29 03:45:59;;;;;;;14.85;5.10;;;9.80;99.90;;;;;;5081699;28;20451;-81
2022/05/29 03:48:24;;;;;;;9.00;4.05;;;9.90;99.90;;;;;;5079618;28;20028;-81
2022/05/29 03:50:49;;;;;;;11.20;5.18;;;9.90;99.90;;;;;;5079667;28;20069;-81
2022/05/29 03:53:15;;;;;;;16.70;5.07;;;9.90;99.90;;;;;;5078254;28;20040;-81
2022/05/29 03:55:43;;;;;;;13.50;5.18;;;9.80;99.90;;;;;;5077998;28;20039;-80
2022/05/29 03:58:10;;;;;;;19.25;5.05;;;9.90;99.90;;;;;;5078059;28;20363;-81
2022/05/29 04:00:35;;;;;;;14.68;4.57;;;9.90;99.90;;;;;;5079992;28;20024;-81
2022/05/29 04:03:02;;;;;;;18.88;5.82;;;9.80;99.90;;;;;;5080873;28;20090;-81
2022/05/29 04:05:28;;;;;;;16.10;4.85;;;9.90;99.90;;;;;;5075658;28;20021;-81
2022/05/29 04:13:25;;;;;;;13.35;4.57;;;10.00;99.90;;;;;;5074219;28;20035;-81
2022/05/29 04:15:51;;;;;;;13.52;5.20;;;10.10;99.90;;;;;;5073659;28;20036;-81
2022/05/29 04:18:19;;;;;;;17.70;4.80;;;10.10;99.90;;;;;;5069080;28;20019;-81
2022/05/29 04:20:45;;;;;;;13.30;4.82;;;10.10;99.90;;;;;;5060673;28;20083;-81
2022/05/29 04:23:12;;;;;;;14.43;4.82;;;10.20;99.90;;;;;;5061329;28;20147;-81
2022/05/29 04:25:38;;;;;;;16.60;5.38;;;10.20;99.90;;;;;;5061492;28;20024;-81
2022/05/29 04:28:03;;;;;;;15.45;4.72;;;10.20;99.90;;;;;;5068166;28;20536;-81
2022/05/29 04:30:29;;;;;;;12.85;4.18;;;10.20;99.90;;;;;;5061831;28;20055;-81
2022/05/29 04:33:04;;;;;;;17.35;5.07;;;10.20;99.90;;;;;;5059949;28;20021;-81
2022/05/29 04:35:36;;;;;;;12.77;5.65;;;10.20;99.90;;;;;;5057993;28;20025;-82
2022/05/29 04:38:02;;;;;;;12.85;4.85;;;10.20;99.90;;;;;;5056946;28;20070;-82
2022/05/29 04:40:30;;;;;;;17.38;5.78;;;10.30;99.90;;;;;;5053980;28;20024;-82
2022/05/29 04:42:55;;;;;;;13.35;5.43;;;10.20;99.90;;;;;;5064090;28;20025;-82
2022/05/29 04:45:21;;;;;;;20.02;5.28;;;10.20;99.90;;;;;;5061179;28;20028;-82
2022/05/29 04:47:46;;;;;;;17.15;4.97;;;10.30;99.90;;;;;;5062130;28;20029;-80
2022/05/29 04:50:12;;;;;;;14.32;4.80;;;10.30;99.90;;;;;;5059896;28;20104;-79
2022/05/29 04:52:38;;;;;;;16.35;5.43;;;10.30;99.90;;;;;;5060308;28;20421;-80
2022/05/29 04:55:04;;;;;;;25.25;6.25;;;10.30;99.90;;;;;;5058702;28;20028;-80
2022/05/29 04:57:30;;;;;;;16.02;4.50;;;10.30;99.90;;;;;;5058954;28;20021;-80
2022/05/29 04:59:57;;;;;;;8.82;4.32;;;10.30;99.90;;;;;;5057984;28;20070;-79
2022/05/29 05:02:22;;;;;;;16.42;5.93;;;10.30;99.90;;;;;;5061024;28;20028;-80
2022/05/29 05:04:48;;;;;;;19.77;6.20;;;10.20;99.90;;;;;;5057619;28;20503;-80
2022/05/29 05:07:14;;;;;;;13.95;5.50;;;10.20;99.90;;;;;;5069936;28;20040;-80
2022/05/29 05:09:40;;;;;;;13.77;4.82;;;10.20;99.90;;;;;;5070248;28;20028;-81
2022/05/29 05:12:06;;;;;;;12.20;4.45;;;10.30;99.90;;;;;;5071657;28;20737;-82
2022/05/29 05:14:34;;;;;;;14.60;4.70;;;10.20;99.90;;;;;;5070333;28;20064;-82
2022/05/29 05:17:00;;;;;;;17.02;5.03;;;10.30;99.90;;;;;;5072138;28;20097;-82
2022/05/29 05:19:26;;;;;;;15.65;4.68;;;10.30;99.90;;;;;;5071147;28;20025;-82
2022/05/29 05:21:51;;;;;;;11.63;4.78;;;10.30;99.90;;;;;;5071032;28;20021;-82
2022/05/29 05:24:18;;;;;;;11.95;4.35;;;10.40;99.90;;;;;;5070958;28;20028;-82
2022/05/29 05:26:43;;;;;;;15.48;5.30;;;10.40;99.90;;;;;;5070986;28;20031;-82
2022/05/29 05:29:09;;;;;;;13.45;4.50;;;10.40;99.90;;;;;;5070874;28;20028;-82
2022/05/29 05:31:34;;;;;;;16.30;4.70;;;10.50;99.90;;;;;;5071446;28;20027;-82
2022/05/29 05:34:00;;;;;;;16.13;4.82;;;10.50;99.90;;;;;;5063426;28;20029;-82
2022/05/29 05:36:26;;;;;;;21.02;6.03;;;10.50;99.90;;;;;;5065744;28;20466;-82
2022/05/29 05:38:53;;;;;;;15.07;4.78;;;10.60;99.90;;;;;;5068952;28;20078;-82
2022/05/29 05:41:19;;;;;;;15.18;4.70;;;10.70;99.90;;;;;;5051965;28;20111;-82
2022/05/29 05:43:44;;;;;;;19.75;4.90;;;10.60;99.90;;;;;;5052006;28;20028;-81
2022/05/29 05:46:12;;;;;;;19.05;4.90;;;10.70;99.90;;;;;;5049590;28;20029;-82
2022/05/29 05:48:39;;;;;;;10.73;4.18;;;10.60;99.90;;;;;;5055674;28;20107;-81
2022/05/29 05:51:05;;;;;;;15.77;5.03;;;10.60;99.90;;;;;;5058588;28;20024;-81
2022/05/29 05:53:32;;;;;;;15.15;5.78;;;10.60;99.90;;;;;;5059495;28;20374;-82
2022/05/29 05:55:57;;;;;;;11.82;4.00;;;10.60;99.90;;;;;;5058611;28;20056;-81
2022/05/29 05:58:23;;;;;;;13.25;4.40;;;10.70;99.90;;;;;;5062000;28;20067;-82
2022/05/29 06:00:50;;;;;;;17.98;5.25;;;10.80;99.90;;;;;;5057564;28;20082;-82
2022/05/29 06:03:16;;;;;;;17.45;5.70;;;10.80;99.90;;;;;;5055575;28;20025;-82
2022/05/29 06:05:42;;;;;;;18.35;5.63;;;10.80;99.90;;;;;;5055925;28;20028;-82
2022/05/29 06:08:08;;;;;;;20.17;5.30;;;10.90;99.90;;;;;;5051836;28;20025;-83
2022/05/29 06:10:34;;;;;;;15.32;5.72;;;10.70;99.90;;;;;;5050154;28;20116;-83
2022/05/29 06:13:05;;;;;;;15.15;4.85;;;10.70;99.90;;;;;;5049975;28;20021;-83
2022/05/29 06:15:30;;;;;;;17.00;5.97;;;10.70;99.90;;;;;;5053407;28;20032;-83
2022/05/29 06:17:56;;;;;;;16.30;5.55;;;10.70;99.90;;;;;;5058233;28;20029;-82
2022/05/29 06:20:22;;;;;;;15.35;5.47;;;10.80;99.90;;;;;;5063385;28;20032;-82
2022/05/29 06:22:48;;;;;;;17.05;5.43;;;10.90;99.90;;;;;;5060356;28;20031;-86
2022/05/29 06:25:14;;;;;;;16.55;6.55;;;11.00;99.90;;;;;;5072816;28;21374;-85
2022/05/29 06:27:41;;;;;;;14.80;6.53;;;11.10;99.90;;;;;;5057469;28;20025;-83
2022/05/29 06:30:11;;;;;;;20.60;7.90;;;11.10;99.90;;;;;;5060840;28;20036;-83
2022/05/29 06:32:37;;;;;;;14.65;5.95;;;11.10;99.90;;;;;;5067203;28;20457;-84
2022/05/29 06:35:04;;;;;;;15.15;7.05;;;11.30;99.90;;;;;;5095738;28;20611;-87
2022/05/29 06:37:29;;;;;;;18.73;6.05;;;11.40;99.90;;;;;;5088383;28;20473;-88
2022/05/29 06:39:56;;;;;;;14.88;5.45;;;11.50;99.90;;;;;;5086876;28;20035;-87
2022/05/29 06:42:21;;;;;;;16.83;6.20;;;11.60;99.90;;;;;;5082225;28;20025;-84
2022/05/29 06:44:47;;;;;;;14.02;5.88;;;11.60;99.90;;;;;;5089258;28;20028;-84
2022/05/29 06:47:15;;;;;;;19.88;6.22;;;11.60;99.90;;;;;;5073928;28;20039;-85
2022/05/29 06:49:41;;;;;;;19.13;5.95;;;11.60;99.90;;;;;;5080528;28;20029;-83
2022/05/29 06:52:08;;;;;;;16.88;5.72;;;11.60;99.90;;;;;;5072935;28;20157;-85
2022/05/29 06:54:35;;;;;;;16.50;5.80;;;11.60;99.90;;;;;;5073884;28;20029;-85
2022/05/29 06:57:01;;;;;;;15.80;6.25;;;11.70;99.90;;;;;;5073950;28;20028;-85
2022/05/29 06:59:26;;;;;;;18.40;5.78;;;11.80;99.90;;;;;;5073522;28;20492;-84
2022/05/29 07:07:22;;;;;;;20.38;6.00;;;11.70;99.90;;;;;;5083526;28;20039;-84
2022/05/29 07:09:48;;;;;;;20.38;5.70;;;11.70;99.90;;;;;;5077290;28;20013;-82
2022/05/29 07:12:26;;;;;;;17.77;5.85;;;11.70;99.90;;;;;;5073306;28;20052;-85
2022/05/29 07:15:02;;;;;;;17.08;6.30;;;11.90;99.90;;;;;;5079788;28;20035;-84
2022/05/29 07:17:27;;;;;;;27.77;7.40;;;12.00;99.90;;;;;;5087683;28;20032;-84
2022/05/29 07:19:54;;;;;;;16.65;5.85;;;12.00;99.90;;;;;;5078129;28;20040;-84
2022/05/29 07:22:20;;;;;;;16.48;6.03;;;11.90;99.90;;;;;;5076989;28;20017;-85
2022/05/29 07:24:46;;;;;;;16.80;6.18;;;11.90;99.90;;;;;;5062049;28;20024;-84
2022/05/29 07:27:12;;;;;;;20.55;5.97;;;11.80;99.90;;;;;;5095312;28;20027;-83
2022/05/29 07:29:38;;;;;;;14.27;5.03;;;11.70;99.90;;;;;;5081309;28;20039;-84
2022/05/29 07:32:05;;;;;;;12.18;5.50;;;11.70;99.90;;;;;;5080915;28;20035;-85
2022/05/29 07:34:30;;;;;;;18.08;5.65;;;11.80;99.90;;;;;;5078790;28;20027;-83
2022/05/29 07:37:05;;;;;;;19.65;6.15;;;11.90;99.90;;;;;;5087538;28;20024;-84
2022/05/29 07:39:41;;;;;;;25.25;6.28;;;12.10;99.90;;;;;;5089461;28;20024;-84
2022/05/29 07:44:52;;;;;;;18.10;5.28;;;12.20;99.90;;;;;;5075998;28;20108;-83
2022/05/29 07:47:19;;;;;;;16.65;5.60;;;12.30;99.90;;;;;;5071529;28;20052;-84
2022/05/29 07:49:44;;;;;;;13.07;4.38;;;12.50;99.90;;;;;;5069859;28;20032;-84
2022/05/29 07:52:10;;;;;;;15.50;4.78;;;12.70;99.90;;;;;;5069207;28;20621;-81
2022/05/29 07:54:35;;;;;;;9.88;4.32;;;12.70;99.90;;;;;;5068043;28;20420;-84
2022/05/29 07:57:01;;;;;;;13.48;4.85;;;12.80;99.90;;;;;;5073652;28;20472;-84
2022/05/29 07:59:26;;;;;;;19.33;5.25;;;12.80;99.90;;;;;;5073772;28;20051;-84
2022/05/29 08:01:52;;;;;;;18.40;5.03;;;12.70;99.90;;;;;;5070519;28;20138;-84
2022/05/29 08:04:17;;;;;;;13.02;4.13;;;12.70;99.90;;;;;;5077022;28;20021;-85
2022/05/29 08:06:43;;;;;;;13.95;4.85;;;12.70;99.90;;;;;;5067339;28;20028;-84
2022/05/29 08:09:09;;;;;;;15.68;4.90;;;12.70;99.90;;;;;;5077498;28;20489;-83
2022/05/29 08:11:35;;;;;;;18.45;4.55;;;12.70;99.90;;;;;;5069209;28;20056;-82
2022/05/29 08:14:01;;;;;;;9.55;4.45;;;12.50;99.90;;;;;;5070553;28;20094;-83
2022/05/29 08:16:28;;;;;;;18.38;5.10;;;12.50;99.90;;;;;;5059729;28;20033;-84
2022/05/29 08:18:53;;;;;;;20.38;5.53;;;12.50;99.90;;;;;;5061540;28;20103;-83
2022/05/29 08:21:19;;;;;;;16.70;4.95;;;12.40;99.90;;;;;;5059285;28;20040;-84
2022/05/29 08:30:37;;;;;;;13.50;4.88;;;12.40;99.90;;;;;;5058890;28;20057;-84
2022/05/29 08:32:00;;;;;;;18.23;4.40;;;13.00;99.90;;;;;;5081216;28;20098;-84
2022/05/29 08:34:26;;;;;;;16.70;5.03;;;13.40;99.90;;;;;;5083044;28;20033;-84
2022/05/29 08:36:55;;;;;;;9.02;4.05;;;13.30;99.90;;;;;;5086212;28;20604;-84
2022/05/29 08:39:21;;;;;;;12.27;4.55;;;13.20;99.90;;;;;;5062862;28;20027;-84
2022/05/29 08:41:50;;;;;;;16.83;5.28;;;13.00;99.90;;;;;;5066967;28;20024;-84
2022/05/29 08:44:40;;;;;;;15.55;5.03;;;12.90;99.90;;;;;;5082661;28;20027;-85
2022/05/29 08:47:06;;;;;;;15.75;4.95;;;12.70;99.90;;;;;;5070755;28;20048;-84
2022/05/29 08:49:39;;;;;;;15.93;4.90;;;12.60;99.90;;;;;;5073196;28;20078;-84
2022/05/29 08:52:31;;;;;;;15.15;5.18;;;12.60;99.90;;;;;;5079610;28;20062;-83
2022/05/29 08:55:00;;;;;;;14.32;4.90;;;12.60;99.90;;;;;;5066497;28;20474;-84
2022/05/29 08:57:59;;;;;;;14.73;5.15;;;12.70;99.90;;;;;;5080426;28;20056;-83
2022/05/29 09:00:44;;;;;;;17.60;4.30;;;12.70;99.90;;;;;;5090048;28;20024;-82
2022/05/29 09:03:51;;;;;;;24.85;6.07;;;12.80;99.90;;;;;;5095166;28;20104;-85
2022/05/29 09:06:35;;;;;;;15.60;4.13;;;13.00;99.90;;;;;;5092281;28;20027;-82
2022/05/29 09:09:06;;;;;;;16.15;4.93;;;13.20;99.90;;;;;;5090359;28;20028;-82
2022/05/29 09:11:47;;;;;;;17.63;5.43;;;13.10;99.90;;;;;;5063710;28;20068;-83
2022/05/29 09:14:23;;;;;;;15.57;5.13;;;13.00;99.90;;;;;;5071682;28;20550;-82
2022/05/29 09:16:57;;;;;;;11.98;5.00;;;12.90;99.90;;;;;;5067771;28;20033;-82
2022/05/29 09:19:36;;;;;;;12.13;5.60;;;12.70;99.90;;;;;;5060742;28;20062;-82
2022/05/29 09:22:27;;;;;;;18.73;6.07;;;12.50;99.90;;;;;;5060102;28;20029;-82
2022/05/29 09:24:53;;;;;;;13.35;5.22;;;12.40;99.90;;;;;;5058199;28;20486;-82
2022/05/29 09:27:19;;;;;;;16.17;5.55;;;12.40;99.90;;;;;;5059954;28;20055;-82
2022/05/29 09:29:44;;;;;;;18.02;5.20;;;12.40;99.90;;;;;;5068864;28;20093;-82
2022/05/29 09:32:26;;;;;;;12.98;4.53;;;12.50;99.90;;;;;;5053536;28;20029;-82
2022/05/29 09:35:20;;;;;;;13.98;4.63;;;12.60;99.90;;;;;;5069883;28;20040;-83
2022/05/29 09:37:58;;;;;;;13.73;5.10;;;12.70;99.90;;;;;;5072757;28;20031;-82
2022/05/29 09:40:29;;;;;;;11.95;4.40;;;12.80;99.90;;;;;;5070932;28;20029;-82
2022/05/29 09:42:55;;;;;;;14.23;4.57;;;13.00;99.90;;;;;;5072497;28;20048;-82
2022/05/29 09:45:22;;;;;;;19.00;5.38;;;13.20;99.90;;;;;;5070981;28;20554;-83
2022/05/29 09:50:54;;;;;;;11.82;3.95;;;13.40;99.90;;;;;;5072235;28;20043;-82
2022/05/29 09:53:25;;;;;;;13.25;4.45;;;13.30;99.90;;;;;;5075195;28;20032;-82
2022/05/29 09:55:55;;;;;;;11.48;4.38;;;13.20;99.90;;;;;;5074969;28;20024;-82
2022/05/29 09:58:26;;;;;;;12.00;3.83;;;13.30;99.90;;;;;;5084553;28;20028;-83
2022/05/29 10:00:55;;;;;;;12.07;3.72;;;13.30;99.90;;;;;;5091163;28;20042;-82
2022/05/29 10:03:46;;;;;;;13.50;3.95;;;13.30;99.90;;;;;;5098173;28;20107;-83
2022/05/29 10:06:42;;;;;;;15.30;4.30;;;13.20;99.90;;;;;;5100725;28;20028;-82
2022/05/29 10:09:17;;;;;;;10.00;4.28;;;13.30;99.90;;;;;;5098375;28;20038;-82
2022/05/29 10:12:21;;;;;;;9.50;3.92;;;13.40;99.90;;;;;;5096815;28;20519;-83
2022/05/29 10:14:51;;;;;;;12.35;4.03;;;13.60;99.90;;;;;;5096463;28;20490;-83
2022/05/29 10:17:34;;;;;;;18.20;4.47;;;13.80;99.90;;;;;;5099043;28;20032;-83
2022/05/29 10:20:00;;;;;;;13.10;4.18;;;13.80;99.90;;;;;;5099200;28;20035;-82
2022/05/29 10:22:41;;;;;;;17.55;4.40;;;13.70;99.90;;;;;;5100265;28;20016;-83
2022/05/29 10:25:21;;;;;;;9.52;4.03;;;13.60;99.90;;;;;;5098720;28;20488;-82
2022/05/29 10:27:53;;;;;;;13.25;3.80;;;13.40;99.90;;;;;;5092093;28;20036;-83
2022/05/29 10:31:00;;;;;;;7.22;3.50;;;13.30;99.90;;;;;;5088239;28;20028;-82
2022/05/29 10:33:31;;;;;;;11.23;4.40;;;13.40;99.90;;;;;;5067662;28;20060;-81
2022/05/29 10:36:08;;;;;;;10.95;4.07;;;13.40;99.90;;;;;;5071026;28;20488;-82
2022/05/29 10:38:34;;;;;;;14.50;4.30;;;13.60;99.90;;;;;;5073171;28;20032;-83
2022/05/29 10:41:04;;;;;;;10.52;3.25;;;13.50;99.90;;;;;;5080169;28;20028;-82
2022/05/29 10:43:46;;;;;;;9.57;4.18;;;13.50;99.90;;;;;;5080326;28;20260;-82
2022/05/29 10:46:19;;;;;;;9.48;3.67;;;13.50;99.90;;;;;;5080193;28;20482;-82
2022/05/29 10:49:28;;;;;;;6.25;2.90;;;13.50;99.90;;;;;;5081743;28;20024;-83
2022/05/29 10:51:56;;;;;;;11.05;3.58;;;13.60;99.90;;;;;;5081461;28;20029;-84
2022/05/29 10:54:43;;;;;;;7.80;3.05;;;13.90;99.90;;;;;;5080956;28;20048;-83
2022/05/29 10:57:21;;;;;;;9.38;3.17;;;14.10;99.90;;;;;;5080571;28;20021;-83
2022/05/29 11:00:04;;;;;;;9.68;3.35;;;14.50;99.90;;;;;;5082563;28;20078;-83
2022/05/29 11:06:00;;;;;;;5.55;2.88;;;15.00;99.90;;;;;;5083452;28;20039;-84
2022/05/29 11:09:08;;;;;;;7.95;2.85;;;15.60;99.90;;;;;;5079567;28;20020;-82
2022/05/29 11:12:09;;;;;;;3.85;1.95;;;15.70;99.90;;;;;;5079342;28;20021;-84
2022/05/29 11:14:57;;;;;;;4.82;1.98;;;15.30;99.90;;;;;;5054862;28;20035;-83
2022/05/29 11:17:48;;;;;;;5.53;2.22;;;14.90;99.90;;;;;;5078272;28;20032;-83
2022/05/29 11:20:59;;;;;;;2.85;2.10;;;14.50;99.90;;;;;;5078984;28;20017;-83
2022/05/29 11:23:54;;;;;;;5.38;2.20;;;14.30;99.90;;;;;;5080544;28;20051;-83
2022/05/29 11:26:46;;;;;;;5.18;2.10;;;14.10;99.90;;;;;;5080994;28;20519;-82
2022/05/29 11:29:42;;;;;;;5.35;2.20;;;14.10;99.90;;;;;;5079823;28;20497;-84
2022/05/29 11:32:43;;;;;;;7.43;2.55;;;14.20;99.90;;;;;;5081520;28;20021;-83
2022/05/29 11:35:46;;;;;;;4.55;2.60;;;14.40;99.90;;;;;;5078801;28;20024;-83
2022/05/29 11:38:25;;;;;;;9.90;3.28;;;14.90;99.90;;;;;;5079552;28;20556;-83
2022/05/29 11:41:03;;;;;;;4.22;2.08;;;15.30;99.90;;;;;;5079183;28;20028;-83
2022/05/29 11:43:49;;;;;;;3.47;2.47;;;16.00;99.90;;;;;;5079431;28;20047;-83
2022/05/29 11:52:45;;;;;;;3.50;1.95;;;16.50;99.90;;;;;;5080948;28;20027;-84
2022/05/29 11:55:20;;;;;;;5.18;2.20;;;16.30;99.90;;;;;;5079028;28;20024;-83
2022/05/29 11:58:24;;;;;;;6.68;2.35;;;16.00;99.90;;;;;;5083973;28;20008;-82
2022/05/29 12:01:07;;;;;;;2.67;1.40;;;15.80;99.90;;;;;;5087069;28;20016;-83
2022/05/29 12:03:50;;;;;;;1.00;0.70;;;15.40;99.90;;;;;;5098270;28;20110;-83
2022/05/29 12:06:27;;;;;;;1.33;1.00;;;14.80;99.90;;;;;;5097906;28;20042;-83
2022/05/29 12:08:59;;;;;;;1.90;0.90;;;14.20;99.90;;;;;;5098150;28;20028;-83
2022/05/29 12:11:40;;;;;;;2.08;1.20;;;14.00;99.90;;;;;;5098534;28;20025;-82
2022/05/29 12:14:46;;;;;;;2.67;1.23;;;13.90;99.90;;;;;;5096859;28;20429;-82
2022/05/29 12:17:20;;;;;;;1.20;1.05;;;13.80;99.90;;;;;;5096139;28;20036;-82
2022/05/29 12:20:03;;;;;;;2.47;1.40;;;13.70;99.90;;;;;;5095678;28;20024;-83
2022/05/29 12:22:39;;;;;;;1.98;1.48;;;13.70;99.90;;;;;;5096442;28;20047;-82
2022/05/29 12:25:33;;;;;;;3.28;1.35;;;13.60;99.90;;;;;;5097285;28;20039;-82
2022/05/29 12:28:03;;;;;;;4.72;1.10;;;13.80;99.90;;;;;;5087115;28;20103;-84
2022/05/29 12:30:35;;;;;;;3.65;1.10;;;13.90;99.90;;;;;;5075772;28;20020;-83
2022/05/29 12:33:08;;;;;;;2.42;1.40;;;13.90;99.90;;;;;;5076338;28;20025;-83
2022/05/29 12:35:40;;;;;;;1.23;1.10;;;14.00;99.90;;;;;;5072190;28;20341;-84
2022/05/29 12:38:11;;;;;;;1.45;1.00;;;14.30;99.90;;;;;;5074541;28;20052;-84
2022/05/29 12:41:04;;;;;;;1.75;0.90;;;14.30;99.90;;;;;;5075382;28;20017;-83
2022/05/29 12:44:06;;;;;;;1.33;0.90;;;14.20;99.90;;;;;;5073670;28;20028;-82
2022/05/29 12:47:17;;;;;;;1.08;0.90;;;14.50;99.90;;;;;;5048625;28;20040;-83
2022/05/29 12:50:21;;;;;;;2.85;1.10;;;15.20;99.90;;;;;;5071041;28;20033;-82
2022/05/29 12:53:21;;;;;;;2.13;1.00;;;15.70;99.90;;;;;;5006578;28;20037;-83
2022/05/29 12:56:21;;;;;;;3.45;1.60;;;16.00;99.90;;;;;;5078367;28;20485;-84
2022/05/29 12:59:12;;;;;;;3.83;1.42;;;16.30;99.90;;;;;;5091894;28;20020;-83
2022/05/29 13:02:15;;;;;;;2.78;1.45;;;16.60;99.90;;;;;;5102349;28;20016;-85
2022/05/29 13:05:18;;;;;;;2.40;1.30;;;17.00;99.90;;;;;;5100227;28;20380;-85
2022/05/29 13:08:12;;;;;;;3.33;1.40;;;16.80;99.90;;;;;;5096952;28;20028;-84
2022/05/29 13:10:41;;;;;;;1.77;1.45;;;16.90;99.90;;;;;;5098054;28;20116;-83
2022/05/29 13:13:20;;;;;;;3.92;1.73;;;16.60;99.90;;;;;;5096282;28;20096;-82
2022/05/29 13:15:47;;;;;;;1.67;1.30;;;16.40;99.90;;;;;;5093934;28;20420;-81
2022/05/29 13:21:14;;;;;;;2.80;1.20;;;16.20;99.90;;;;;;5093964;28;20028;-81
2022/05/29 13:24:10;;;;;;;3.28;1.30;;;16.00;99.90;;;;;;5099798;28;20031;-83
2022/05/29 13:26:41;;;;;;;6.05;1.55;;;16.00;99.90;;;;;;5099158;28;20028;-90
2022/05/29 13:29:31;;;;;;;3.90;1.30;;;16.50;99.90;;;;;;5078586;28;20058;-84
2022/05/29 13:32:16;;;;;;;3.70;1.85;;;17.20;99.90;;;;;;5042541;28;20100;-84
2022/05/29 13:35:15;;;;;;;2.17;1.27;;;17.80;99.30;;;;;;5070364;28;20036;-91
2022/05/29 13:37:49;;;;;;;1.77;1.08;;;17.80;99.90;;;;;;5060214;28;20021;-82
2022/05/29 13:40:21;;;;;;;1.33;1.10;;;17.50;98.30;;;;;;5070248;28;20465;-84
2022/05/29 13:42:51;;;;;;;2.28;1.25;;;17.40;97.80;;;;;;5077856;28;20028;-81
2022/05/29 13:45:19;;;;;;;5.03;1.37;;;17.60;97.10;;;;;;5078081;28;20402;-83
2022/05/29 13:47:48;;;;;;;2.17;1.17;;;17.20;98.10;;;;;;5075254;28;20111;-82
2022/05/29 13:50:13;;;;;;;1.85;1.10;;;17.00;99.00;;;;;;5075505;28;20087;-82
2022/05/29 13:52:51;;;;;;;3.08;1.05;;;16.50;99.90;;;;;;5076967;28;20039;-81
2022/05/29 13:55:20;;;;;;;2.30;1.17;;;16.10;99.90;;;;;;5077805;28;20384;-82
2022/05/29 14:03:58;;;;;;;3.28;1.23;;;15.60;99.90;;;;;;5090952;28;20046;-82
2022/05/29 14:06:35;;;;;;;2.25;1.30;;;15.60;99.90;;;;;;5098304;28;20056;-81